Orsk, Russia
Current Conditions -  °F | °C
As of 5:00 AM on Wednesday 26 Nov 2014 (Local Time) from UWOR Reporting Station
Clear Clear  
Wind Chill: -12°   Ceiling: Unl
Heat Index:   Visibility: 6mi
Dew Point:   Wind: 18mph
Humidity: 72%   Direction: 280°W
Pressure: 30.48"   Gusts: NA
Location:  51.21°N, 58.63°E
Report Text: UWOR 260000Z 28008MPS CAVOK M14/M18 Q1032 25CLRD65 NOSIG RMKQFE750/1000
Loading
Personal Weather Stations






























Interactive Weather Map New forecast layout! Learn more

10-Day Weather Forecast

Advertisements
Track Severe Weather on mobile